Soweto, South Africa
Current Conditions -  °F | °C
As of 9:00 AM on Sunday 21 Dec 2014 (Local Time) from FALA Reporting Station
Clear Clear  
Wind Chill: 75°   Ceiling: Unl
Heat Index: 75°   Visibility: 6mi
Dew Point: 57°   Wind: 0mph
Humidity: 53%   Direction: NA
Pressure: 30.15"   Gusts: NA
Location:  26.28°S, 27.84°E
Report Text: FALA 210700Z 00000KT CAVOK 24/14 Q1021 NOSIG
Loading
Personal Weather Stations






























Interactive Weather Map New forecast layout! Learn more

10-Day Weather Forecast

Advertisements
Track Severe Weather on mobile